Arlington, NJ

11:07 PM EST on November 25, 2014 (GMT -0500)
APRSWXNET KEARNY, NJ | Change Station
CLOSE
Current Station
Personal Weather Station
Location: Kearny, NJ
Elevation: 98 ft
Nearby Weather Stations
Active Advisory: Winter Weather Advisory Active Notice: Record Report

Elev 98 ft 40.77 °N, 74.14 °W | Updated 22 minutes ago

Partly Cloudy
Partly Cloudy
46.9 °F
Feels Like 47 °F
N
0.0
Wind Variable Wind from NE
Gusts 0.0 mph

Today
High -- | Low -- °F
--% Chance of Precip.
Yesterday
High -- | Low -- °F
Precip. -- in
6:54 AM 4:31 PM
Waxing Crescent, 16% visible
Pressure 30.16 in
Visibility 10.0 miles
Clouds Mostly Cloudy 15000 ft
Overcast 25000 ft
Windchill 47 °F
Dew Point 32 °F
Humidity 55%
Rainfall 0.00 in
Snow Depth Not available.
UV 0 out of 12
Pollen .10 out of 12
Air Quality Not available.
Flu Activity Not available.
METAR KEWR 260351Z 28004KT 10SM BKN150 OVC250 09/M01 A3016 RMK AO2 SLP212 T00941006 $

More Conditions Fewer Conditions

Pressure 30.16 in
Visibility 10.0 miles
Clouds Mostly Cloudy 15000 ft
Overcast 25000 ft
Windchill 47 °F
Dew Point 32 °F
Humidity 55%
Rainfall 0.00 in
Snow Depth Not available.
UV 0 out of 12
Pollen .10 out of 12
Air Quality Not available.
Flu Activity Not available.
METAR KEWR 260351Z 28004KT 10SM BKN150 OVC250 09/M01 A3016 RMK AO2 SLP212 T00941006 $

More Conditions Fewer Conditions

10-Day Weather Forecast

Almanac

Astronomy

Nov. 25, 2014 Rise Set
Actual Time
Civil Twilight
Nautical Twilight
Astronomical Twilight
Moon
Length of Visible Light
Length of Day
Tomorrow will be .
, % of the Moon is Illuminated

Today's Extremes

State Highs State Lows

Community

WunderPhotos

Upload Photos

1,773,679 photos uploaded!

WunderBlogs® & News

Nearby

Air Quality

  Air Quality AQ Index Pollutant
Not available.

Snow Depth

Station Depth Elevation

Earthquake Activity

City Distance Mag. Time & Date
Minimum magnitude displayed is 2.5.

Coastal Water Temperatures

Place Temperature

Nearby Weather Stations